Time;durP1;ratioP1;P1;durP2;ratioP2;P2;SDS_P1;SDS_P2;PMS_P1;PMS_P2;Temp;Humidity;BMP_temperature;BMP_pressure;BME280_temperature;BME280_humidity;BME280_pressure;Samples;Min_cycle;Max_cycle;Signal;HPM_P1;HPM_P2
2023/10/13 00:01:06;;;;;;;33.40;21.73;;;16.70;99.90;;;;;;5034454;28;20647;-69
2023/10/13 00:03:32;;;;;;;26.48;20.63;;;16.70;99.90;;;;;;5034148;28;20738;-69
2023/10/13 00:06:03;;;;;;;25.52;20.75;;;16.70;99.90;;;;;;5016403;28;20290;-69
2023/10/13 00:08:29;;;;;;;29.45;22.23;;;16.60;99.90;;;;;;5035107;28;20608;-69
2023/10/13 00:10:59;;;;;;;25.25;21.27;;;16.60;99.90;;;;;;5034424;28;20217;-69
2023/10/13 00:13:27;;;;;;;24.85;19.48;;;16.60;99.90;;;;;;5033820;28;20655;-69
2023/10/13 00:15:59;;;;;;;25.10;18.73;;;16.60;99.90;;;;;;5016620;28;20554;-68
2023/10/13 00:18:34;;;;;;;23.27;18.48;;;16.70;99.90;;;;;;5034612;28;20159;-69
2023/10/13 00:21:03;;;;;;;23.02;17.55;;;16.60;99.90;;;;;;5033828;28;20155;-69
2023/10/13 00:23:32;;;;;;;25.38;17.13;;;16.70;99.90;;;;;;5033713;28;20191;-69
2023/10/13 00:25:59;;;;;;;23.15;17.65;;;16.70;99.90;;;;;;5015946;28;20203;-69
2023/10/13 00:28:35;;;;;;;22.33;17.10;;;16.70;99.90;;;;;;5033563;28;20221;-69
2023/10/13 00:31:10;;;;;;;25.67;16.13;;;16.70;99.90;;;;;;5015986;28;20246;-69
2023/10/13 00:33:37;;;;;;;21.42;16.10;;;16.80;99.90;;;;;;5015807;28;20198;-69
2023/10/13 00:36:05;;;;;;;20.42;15.45;;;16.80;99.90;;;;;;5034167;28;20198;-69
2023/10/13 00:38:31;;;;;;;21.80;14.98;;;16.80;99.90;;;;;;5033871;28;20583;-67
2023/10/13 00:41:13;;;;;;;17.67;14.25;;;16.80;99.90;;;;;;5033438;28;20643;-67
2023/10/13 00:43:45;;;;;;;23.23;14.55;;;16.80;99.90;;;;;;5032811;28;20194;-66
2023/10/13 00:46:13;;;;;;;25.17;13.70;;;16.80;99.90;;;;;;5033608;28;20195;-67
2023/10/13 00:48:54;;;;;;;17.80;14.48;;;16.90;99.90;;;;;;5015489;28;20649;-67
2023/10/13 00:51:34;;;;;;;19.90;12.63;;;16.80;99.90;;;;;;5033636;28;20151;-67
2023/10/13 00:54:11;;;;;;;17.30;12.30;;;16.80;99.90;;;;;;5033198;28;20214;-67
2023/10/13 00:59:26;;;;;;;15.95;11.20;;;16.80;99.90;;;;;;5033378;28;20171;-66
2023/10/13 01:01:55;;;;;;;16.65;11.82;;;16.90;99.90;;;;;;5033372;28;20183;-66
2023/10/13 01:04:28;;;;;;;14.52;11.27;;;16.80;99.90;;;;;;5033178;28;20175;-67
2023/10/13 01:06:53;;;;;;;16.10;10.93;;;16.80;99.90;;;;;;5033167;28;20234;-67
2023/10/13 01:09:19;;;;;;;16.55;11.73;;;16.80;99.90;;;;;;5015420;28;20266;-66
2023/10/13 01:11:52;;;;;;;17.90;11.48;;;16.80;99.90;;;;;;5032996;28;20171;-67
2023/10/13 01:14:20;;;;;;;18.52;11.73;;;16.80;99.90;;;;;;5033200;28;20151;-66
2023/10/13 01:16:47;;;;;;;14.40;10.73;;;16.90;99.90;;;;;;5033321;28;20163;-67
2023/10/13 01:19:14;;;;;;;15.55;10.27;;;16.90;99.90;;;;;;5015325;28;20187;-66
2023/10/13 01:21:47;;;;;;;13.27;10.45;;;16.90;99.90;;;;;;5032879;28;20669;-68
2023/10/13 01:24:13;;;;;;;16.83;10.32;;;16.90;99.90;;;;;;5032929;28;20155;-67
2023/10/13 01:26:40;;;;;;;19.13;12.18;;;16.90;99.90;;;;;;5032953;28;20540;-66
2023/10/13 01:29:15;;;;;;;22.02;11.88;;;16.90;99.90;;;;;;5032787;28;20191;-67
2023/10/13 01:31:48;;;;;;;17.20;11.98;;;16.90;99.90;;;;;;5032853;28;20162;-67
2023/10/13 01:34:24;;;;;;;15.77;11.80;;;16.90;99.90;;;;;;5032887;28;20152;-66
2023/10/13 01:36:51;;;;;;;18.55;11.73;;;16.90;99.90;;;;;;5032935;28;20167;-67
2023/10/13 01:39:19;;;;;;;16.02;11.93;;;16.90;99.90;;;;;;5033031;28;20179;-67
2023/10/13 01:41:45;;;;;;;15.50;11.93;;;17.00;99.90;;;;;;5032750;28;20229;-67
2023/10/13 01:44:17;;;;;;;14.43;10.95;;;17.00;99.90;;;;;;5032678;28;20198;-67
2023/10/13 01:46:42;;;;;;;13.60;10.95;;;17.00;99.90;;;;;;5033054;28;20160;-66
2023/10/13 01:49:08;;;;;;;15.77;12.35;;;17.00;99.90;;;;;;5032784;28;20658;-67
2023/10/13 01:51:34;;;;;;;16.40;12.35;;;17.10;99.90;;;;;;5032845;28;20217;-66
2023/10/13 01:54:02;;;;;;;17.88;12.68;;;17.10;99.90;;;;;;5032778;28;20194;-67
2023/10/13 01:56:30;;;;;;;14.57;11.00;;;17.00;99.90;;;;;;5036467;28;20171;-66
2023/10/13 01:58:57;;;;;;;15.05;11.35;;;17.10;99.90;;;;;;5036167;28;20171;-66
2023/10/13 02:01:29;;;;;;;17.73;11.82;;;17.00;99.90;;;;;;5035971;28;20624;-66
2023/10/13 02:04:06;;;;;;;17.10;11.70;;;17.00;99.90;;;;;;5036790;28;20286;-67
2023/10/13 02:06:33;;;;;;;12.02;10.35;;;17.00;99.90;;;;;;5035968;28;20186;-67
2023/10/13 02:09:05;;;;;;;21.25;11.55;;;17.00;99.90;;;;;;5018090;28;20663;-67
2023/10/13 02:11:31;;;;;;;17.77;12.05;;;17.00;99.90;;;;;;5036550;28;20163;-66
2023/10/13 02:13:57;;;;;;;17.15;11.68;;;17.00;99.90;;;;;;5035702;28;20187;-66
2023/10/13 02:16:25;;;;;;;17.67;11.48;;;17.00;99.90;;;;;;5018159;28;20179;-67
2023/10/13 02:18:54;;;;;;;14.82;10.70;;;16.90;99.90;;;;;;5036416;28;20515;-67
2023/10/13 02:21:19;;;;;;;16.58;12.13;;;16.90;99.90;;;;;;5035830;28;20254;-67
2023/10/13 02:23:45;;;;;;;14.77;11.32;;;17.00;99.90;;;;;;5035750;28;20292;-66
2023/10/13 02:26:30;;;;;;;16.65;11.45;;;16.90;99.90;;;;;;5035956;28;20282;-66
2023/10/13 02:29:07;;;;;;;16.80;11.60;;;16.90;99.90;;;;;;5035540;28;20160;-67
2023/10/13 02:31:36;;;;;;;21.20;11.80;;;16.90;99.90;;;;;;5036276;28;20151;-67
2023/10/13 02:34:07;;;;;;;18.25;11.38;;;16.90;99.90;;;;;;5035549;28;20202;-67
2023/10/13 02:36:38;;;;;;;15.65;11.23;;;16.90;99.90;;;;;;5035975;28;20225;-67
2023/10/13 02:39:07;;;;;;;16.23;11.02;;;16.90;99.90;;;;;;5017800;28;20179;-67
2023/10/13 02:41:37;;;;;;;14.65;11.40;;;16.90;99.90;;;;;;5035846;28;20179;-67
2023/10/13 02:44:08;;;;;;;16.38;11.10;;;16.90;99.90;;;;;;5035541;28;20286;-67
2023/10/13 02:46:39;;;;;;;15.73;11.10;;;16.90;99.90;;;;;;5035736;28;20183;-67
2023/10/13 02:49:11;;;;;;;15.85;10.00;;;16.90;99.90;;;;;;5017661;28;20270;-67
2023/10/13 02:51:37;;;;;;;16.23;10.50;;;16.90;99.90;;;;;;5035391;28;20156;-67
2023/10/13 02:54:18;;;;;;;16.75;11.15;;;16.90;99.90;;;;;;5035242;28;20607;-67
2023/10/13 02:57:05;;;;;;;18.58;10.73;;;16.90;99.90;;;;;;5017555;28;20703;-67
2023/10/13 02:59:34;;;;;;;15.95;11.13;;;16.90;99.90;;;;;;5034489;28;20695;-66
2023/10/13 03:02:23;;;;;;;17.95;10.35;;;16.90;99.90;;;;;;5034854;28;20648;-67
2023/10/13 03:04:59;;;;;;;20.55;10.90;;;16.90;99.90;;;;;;5035200;28;20640;-67
2023/10/13 03:07:28;;;;;;;13.85;10.00;;;16.90;99.90;;;;;;5017325;28;20181;-67
2023/10/13 03:10:09;;;;;;;13.10;9.93;;;16.90;99.90;;;;;;5035276;28;20179;-67
2023/10/13 03:12:38;;;;;;;15.13;10.02;;;16.90;99.90;;;;;;5035131;28;20183;-67
2023/10/13 03:17:36;;;;;;;16.92;9.75;;;16.90;99.90;;;;;;5035541;28;20171;-67
2023/10/13 03:20:05;;;;;;;15.07;10.60;;;16.90;99.90;;;;;;5017199;28;20179;-67
2023/10/13 03:22:31;;;;;;;16.83;10.02;;;16.80;99.90;;;;;;5035447;28;20290;-67
2023/10/13 03:25:04;;;;;;;14.85;9.43;;;16.80;99.90;;;;;;5034980;28;20244;-67
2023/10/13 03:27:42;;;;;;;14.88;10.73;;;16.80;99.90;;;;;;5035003;28;20234;-67
2023/10/13 03:30:13;;;;;;;17.17;9.93;;;16.80;99.90;;;;;;5017008;28;20178;-67
2023/10/13 03:32:43;;;;;;;13.75;10.18;;;16.80;99.90;;;;;;5017658;28;20227;-67
2023/10/13 03:35:24;;;;;;;15.50;8.73;;;16.80;99.90;;;;;;5035640;28;20167;-67
2023/10/13 03:37:54;;;;;;;16.50;10.48;;;16.80;99.90;;;;;;5017384;28;20546;-67
2023/10/13 03:43:10;;;;;;;12.55;10.20;;;16.70;99.90;;;;;;5034815;28;20253;-67
2023/10/13 03:45:49;;;;;;;17.85;10.35;;;16.70;99.90;;;;;;5034287;28;20210;-68
2023/10/13 03:51:10;;;;;;;17.50;11.93;;;16.70;99.90;;;;;;5034897;28;20630;-68
2023/10/13 03:54:07;;;;;;;16.00;11.25;;;16.70;99.90;;;;;;5016767;28;20636;-68
2023/10/13 03:56:29;;;;;;;17.00;11.30;;;16.60;99.90;;;;;;5033700;28;20191;-68
2023/10/13 03:59:01;;;;;;;17.30;11.35;;;16.60;99.90;;;;;;5016233;28;20178;-68
2023/10/13 04:04:12;;;;;;;17.48;11.50;;;16.60;99.90;;;;;;5034308;28;20222;-68
2023/10/13 04:17:14;;;;;;;17.40;11.52;;;16.50;99.90;;;;;;5033950;28;20162;-68
2023/10/13 04:31:06;;;;;;;18.42;12.75;;;16.50;99.90;;;;;;5033798;28;20200;-70
2023/10/13 04:33:55;;;;;;;15.90;10.85;;;16.60;99.90;;;;;;5015908;28;20202;-70
2023/10/13 04:41:41;;;;;;;19.85;12.00;;;16.60;99.90;;;;;;5033538;28;20159;-68
2023/10/13 04:54:49;;;;;;;15.40;11.35;;;16.70;99.90;;;;;;5033277;28;20258;-68
2023/10/13 06:30:00;;;;;;;18.95;10.10;;;17.00;99.90;;;;;;5036083;28;20166;-66
2023/10/13 06:32:26;;;;;;;17.02;9.57;;;17.10;99.90;;;;;;5036044;28;20190;-67
2023/10/13 06:35:39;;;;;;;15.43;9.70;;;17.10;99.90;;;;;;5017998;28;20185;-66
2023/10/13 06:37:45;;;;;;;18.60;10.35;;;17.10;99.90;;;;;;5024860;28;20215;-65
2023/10/13 06:40:33;;;;;;;16.50;9.95;;;17.10;99.90;;;;;;5034962;28;20225;-65
2023/10/13 06:43:17;;;;;;;12.82;9.82;;;17.00;99.90;;;;;;5035329;28;20215;-67
2023/10/13 06:45:56;;;;;;;15.38;10.32;;;17.10;99.90;;;;;;5035305;28;20194;-67
2023/10/13 06:48:25;;;;;;;14.15;9.98;;;17.00;99.90;;;;;;5035774;28;20147;-67
2023/10/13 06:50:52;;;;;;;12.98;9.30;;;17.00;99.90;;;;;;5035470;28;20174;-67
2023/10/13 06:53:19;;;;;;;12.05;8.82;;;17.00;99.90;;;;;;5035420;28;20578;-66
2023/10/13 06:55:47;;;;;;;13.27;8.20;;;17.00;99.90;;;;;;5017531;28;20544;-67
2023/10/13 06:58:17;;;;;;;16.15;8.32;;;17.00;99.90;;;;;;5035289;28;20640;-67
2023/10/13 07:00:53;;;;;;;12.35;8.73;;;17.00;99.90;;;;;;5035018;28;20185;-66
2023/10/13 07:03:19;;;;;;;11.63;8.10;;;17.00;99.90;;;;;;5034908;28;20210;-66
2023/10/13 07:05:48;;;;;;;14.50;8.70;;;17.00;99.90;;;;;;5035010;28;20253;-68
2023/10/13 07:08:19;;;;;;;11.63;8.35;;;17.00;99.90;;;;;;5035615;28;20168;-67
2023/10/13 07:11:02;;;;;;;10.82;9.25;;;17.00;99.90;;;;;;5035595;28;20179;-67
2023/10/13 07:13:29;;;;;;;16.05;9.60;;;17.00;99.90;;;;;;5035124;28;20566;-67
2023/10/13 07:16:01;;;;;;;11.15;8.27;;;17.00;99.90;;;;;;5034633;28;20176;-67
2023/10/13 07:18:35;;;;;;;11.82;9.73;;;17.10;99.90;;;;;;5017127;28;20542;-67
2023/10/13 07:21:09;;;;;;;15.00;9.07;;;17.10;99.90;;;;;;5017062;28;20198;-67
2023/10/13 07:23:36;;;;;;;13.43;9.73;;;17.20;99.90;;;;;;5017000;28;20206;-67
2023/10/13 07:26:04;;;;;;;19.20;11.98;;;17.20;99.90;;;;;;5016923;28;20290;-64
2023/10/13 07:28:43;;;;;;;14.88;10.32;;;17.20;99.90;;;;;;5034550;28;20172;-65
2023/10/13 07:31:20;;;;;;;18.42;11.50;;;17.30;99.90;;;;;;5016682;28;20584;-65
2023/10/13 07:33:47;;;;;;;18.17;12.05;;;17.30;99.90;;;;;;5034497;28;20277;-65
2023/10/13 07:36:16;;;;;;;19.05;13.23;;;17.30;99.90;;;;;;5034551;28;20179;-65
2023/10/13 07:38:49;;;;;;;16.63;12.55;;;17.40;99.90;;;;;;5034474;28;20171;-65
2023/10/13 07:41:15;;;;;;;20.27;13.50;;;17.40;99.90;;;;;;5034860;28;20214;-65
2023/10/13 07:43:45;;;;;;;23.02;13.35;;;17.40;99.90;;;;;;5016491;28;20203;-64
2023/10/13 07:46:12;;;;;;;17.00;12.30;;;17.40;99.90;;;;;;5033997;28;20203;-65
2023/10/13 07:48:45;;;;;;;19.90;14.35;;;17.50;99.90;;;;;;5016588;28;20567;-66
2023/10/13 07:51:15;;;;;;;18.83;11.80;;;17.60;99.90;;;;;;5034432;28;20183;-66
2023/10/13 07:53:43;;;;;;;24.38;12.32;;;17.50;99.90;;;;;;5015793;28;20253;-65
2023/10/13 07:56:13;;;;;;;18.05;11.05;;;17.60;99.90;;;;;;5034366;28;20171;-65
2023/10/13 07:59:00;;;;;;;22.00;12.05;;;17.60;99.90;;;;;;5034078;28;20647;-65
2023/10/13 08:01:26;;;;;;;24.70;11.73;;;17.60;99.90;;;;;;5016033;28;20202;-66
2023/10/13 08:04:28;;;;;;;22.95;12.00;;;17.70;99.90;;;;;;5034222;28;20198;-66
2023/10/13 08:06:45;;;;;;;20.33;11.13;;;17.70;99.90;;;;;;5030665;28;20211;-66
2023/10/13 08:09:30;;;;;;;24.35;11.25;;;17.70;99.90;;;;;;5033823;28;20197;-66
2023/10/13 08:11:57;;;;;;;25.88;10.95;;;17.80;99.90;;;;;;5034783;28;20564;-66
2023/10/13 08:14:23;;;;;;;21.77;11.18;;;17.80;99.90;;;;;;5017126;28;20266;-66
2023/10/13 08:16:52;;;;;;;20.42;10.70;;;17.80;99.90;;;;;;5016044;28;20183;-66
2023/10/13 08:19:44;;;;;;;19.27;10.32;;;17.80;99.90;;;;;;5035445;28;20179;-66
2023/10/13 08:32:36;;;;;;;20.75;9.80;;;17.90;99.90;;;;;;5033860;28;20187;-66
2023/10/13 08:43:11;;;;;;;18.67;9.15;;;18.00;99.90;;;;;;5033639;28;20710;-65
2023/10/13 08:48:08;;;;;;;19.20;9.45;;;18.10;99.90;;;;;;5033532;28;20201;-66
2023/10/13 08:50:48;;;;;;;18.00;8.60;;;18.20;99.90;;;;;;5033381;28;20191;-67
2023/10/13 09:04:21;;;;;;;23.08;8.77;;;18.50;99.90;;;;;;5012904;28;20191;-66
2023/10/13 09:17:53;;;;;;;15.35;7.70;;;19.00;99.90;;;;;;5037839;28;20167;-64
2023/10/13 09:23:28;;;;;;;19.65;8.10;;;19.20;99.90;;;;;;5037357;28;20226;-66
2023/10/13 09:26:09;;;;;;;18.02;7.72;;;19.30;99.90;;;;;;5037094;28;20187;-66
2023/10/13 09:28:36;;;;;;;15.60;8.18;;;19.20;99.90;;;;;;5036936;28;20168;-66
2023/10/13 09:31:07;;;;;;;13.07;6.90;;;19.30;99.90;;;;;;5036719;28;20194;-66
2023/10/13 09:33:35;;;;;;;14.63;7.78;;;19.20;99.90;;;;;;5019129;28;20195;-66
2023/10/13 09:36:04;;;;;;;19.58;8.48;;;19.30;99.90;;;;;;5037351;28;20206;-66
2023/10/13 09:38:48;;;;;;;17.88;7.20;;;19.30;99.90;;;;;;5037123;28;20171;-66
2023/10/13 09:41:26;;;;;;;17.80;6.88;;;19.30;99.90;;;;;;5036910;28;20209;-65
2023/10/13 09:43:52;;;;;;;22.63;7.13;;;19.60;99.90;;;;;;5036671;28;20195;-66
2023/10/13 09:46:26;;;;;;;14.00;6.75;;;19.80;99.90;;;;;;5036291;28;20682;-65
2023/10/13 09:49:15;;;;;;;17.33;6.53;;;19.90;99.90;;;;;;5036591;28;20155;-66
2023/10/13 09:51:44;;;;;;;13.52;6.68;;;20.00;99.90;;;;;;5018756;28;20167;-66
2023/10/13 09:54:36;;;;;;;14.88;6.68;;;20.10;99.90;;;;;;5036764;28;20183;-66
2023/10/13 09:57:18;;;;;;;15.70;6.72;;;20.10;99.90;;;;;;5036712;28;20635;-66
2023/10/13 10:00:26;;;;;;;16.40;6.43;;;20.20;99.90;;;;;;5018614;28;20539;-66
2023/10/13 10:02:57;;;;;;;14.20;6.45;;;20.30;99.90;;;;;;5036151;28;20695;-65
2023/10/13 10:05:26;;;;;;;15.23;6.65;;;20.30;99.90;;;;;;5018467;28;20278;-66
2023/10/13 10:07:59;;;;;;;16.05;7.15;;;20.30;99.90;;;;;;5036185;28;20225;-66
2023/10/13 10:11:04;;;;;;;17.60;7.28;;;20.50;99.90;;;;;;5036507;28;20290;-66
2023/10/13 10:14:08;;;;;;;15.13;6.95;;;20.70;99.90;;;;;;5036021;28;20190;-66
2023/10/13 10:16:49;;;;;;;16.13;7.57;;;21.20;99.90;;;;;;5034584;28;20641;-67
2023/10/13 10:19:14;;;;;;;14.85;6.70;;;21.20;99.90;;;;;;5036450;28;20163;-65
2023/10/13 10:21:41;;;;;;;13.70;7.15;;;21.30;99.90;;;;;;5036085;28;20229;-66
2023/10/13 10:24:29;;;;;;;20.77;6.93;;;21.30;99.90;;;;;;5035855;28;20195;-66
2023/10/13 10:26:56;;;;;;;10.82;6.40;;;21.30;99.90;;;;;;5036116;28;20218;-64
2023/10/13 10:29:22;;;;;;;11.65;6.28;;;21.40;99.90;;;;;;5035877;28;20640;-66
2023/10/13 10:31:48;;;;;;;11.65;6.53;;;21.60;99.90;;;;;;5035481;28;20184;-66
2023/10/13 10:34:21;;;;;;;13.70;6.53;;;21.70;99.90;;;;;;5035746;28;20172;-65
2023/10/13 10:36:58;;;;;;;15.63;7.20;;;21.90;99.90;;;;;;5036034;28;20178;-66
2023/10/13 10:39:44;;;;;;;14.07;6.85;;;21.80;99.90;;;;;;5035865;28;20643;-65
2023/10/13 10:42:15;;;;;;;13.50;6.38;;;21.80;99.90;;;;;;5035851;28;20285;-64
2023/10/13 10:44:44;;;;;;;16.17;7.55;;;21.70;99.90;;;;;;5035841;28;20162;-65
2023/10/13 10:47:38;;;;;;;16.42;7.88;;;21.80;99.90;;;;;;5035778;28;20175;-66
2023/10/13 10:50:19;;;;;;;17.00;7.25;;;21.90;99.90;;;;;;5035435;28;20251;-66
2023/10/13 10:52:46;;;;;;;17.80;7.68;;;22.20;99.90;;;;;;5035727;28;20194;-66
2023/10/13 10:55:19;;;;;;;12.52;7.18;;;22.40;99.90;;;;;;5035429;28;20171;-66
2023/10/13 10:57:48;;;;;;;19.48;7.72;;;22.50;99.90;;;;;;5035730;28;20535;-64
2023/10/13 11:00:25;;;;;;;19.80;7.15;;;22.40;99.90;;;;;;5035142;28;20581;-66
2023/10/13 11:02:57;;;;;;;17.48;7.13;;;22.30;99.90;;;;;;5035224;28;20215;-66
2023/10/13 11:05:32;;;;;;;17.48;6.65;;;22.20;99.90;;;;;;5017319;28;20207;-66
2023/10/13 11:07:58;;;;;;;16.60;7.55;;;22.30;99.90;;;;;;5017475;28;20206;-66
2023/10/13 11:10:27;;;;;;;13.98;6.88;;;22.40;99.90;;;;;;5017342;28;20187;-66
2023/10/13 11:15:45;;;;;;;16.50;7.68;;;22.90;99.90;;;;;;5035332;28;20298;-64
2023/10/13 11:18:23;;;;;;;15.52;6.88;;;23.00;99.90;;;;;;5034979;28;20176;-65
2023/10/13 11:20:55;;;;;;;13.52;6.82;;;23.00;99.90;;;;;;5034869;28;20175;-65
2023/10/13 11:23:28;;;;;;;16.30;7.70;;;23.10;99.90;;;;;;5035267;28;20195;-65
2023/10/13 11:25:59;;;;;;;18.13;7.90;;;23.10;99.90;;;;;;5017011;28;20663;-66
2023/10/13 11:28:28;;;;;;;15.32;6.80;;;23.20;99.90;;;;;;5016961;28;20175;-66
2023/10/13 11:31:04;;;;;;;11.68;6.60;;;23.30;99.90;;;;;;5034736;28;20254;-68
2023/10/13 11:33:31;;;;;;;20.30;6.65;;;23.40;99.90;;;;;;5034865;28;20705;-66
2023/10/13 11:36:02;;;;;;;16.15;7.05;;;23.30;99.90;;;;;;5034699;28;20179;-66
2023/10/13 11:49:17;;;;;;;14.20;7.07;;;22.70;99.90;;;;;;4993927;28;20191;-65
2023/10/13 11:51:49;;;;;;;14.68;7.60;;;22.60;99.90;;;;;;5034904;28;20158;-65
2023/10/13 11:54:21;;;;;;;21.98;7.78;;;22.60;99.90;;;;;;5034856;28;20166;-64
2023/10/13 11:56:51;;;;;;;15.30;6.88;;;22.60;99.90;;;;;;5034834;28;20174;-65
2023/10/13 11:59:17;;;;;;;17.73;7.78;;;22.50;99.90;;;;;;5034250;28;20155;-66
2023/10/13 12:04:33;;;;;;;18.80;8.15;;;22.50;99.90;;;;;;5034895;28;20189;-65
2023/10/13 12:07:14;;;;;;;12.77;7.43;;;22.50;99.90;;;;;;5034176;28;20256;-65
2023/10/13 12:12:21;;;;;;;14.63;6.90;;;22.50;99.90;;;;;;5034537;28;20187;-66
2023/10/13 12:14:56;;;;;;;11.98;7.82;;;22.40;99.90;;;;;;5016116;28;20186;-66
2023/10/13 12:17:34;;;;;;;19.63;7.70;;;22.40;99.90;;;;;;5034663;28;20159;-66
2023/10/13 12:20:05;;;;;;;12.63;7.70;;;22.80;99.90;;;;;;5034621;28;20152;-64
2023/10/13 12:22:42;;;;;;;18.05;7.75;;;23.20;99.90;;;;;;5034188;28;20191;-64
2023/10/13 12:25:34;;;;;;;15.73;7.00;;;23.40;99.90;;;;;;5015899;28;20301;-67
2023/10/13 12:28:40;;;;;;;23.45;8.30;;;23.50;99.90;;;;;;5033640;28;20196;-65
2023/10/13 12:30:54;;;;;;;17.13;8.27;;;23.60;99.90;;;;;;5029253;28;20264;-65
2023/10/13 12:52:16;;;;;;;13.82;6.72;;;22.90;99.90;;;;;;5033311;28;20194;-65
2023/10/13 12:57:24;;;;;;;17.52;7.43;;;22.50;99.90;;;;;;5033595;28;20163;-66
2023/10/13 12:59:56;;;;;;;50.67;20.08;;;22.40;99.90;;;;;;5033255;28;20250;-65
2023/10/13 13:02:26;;;;;;;19.77;8.07;;;22.20;99.90;;;;;;5032880;28;20206;-64
2023/10/13 13:04:56;;;;;;;12.35;6.63;;;22.20;99.90;;;;;;5033423;28;20539;-64
2023/10/13 13:07:29;;;;;;;13.27;7.40;;;22.20;99.90;;;;;;5033400;28;20542;-63
2023/10/13 13:09:59;;;;;;;14.45;7.30;;;22.10;99.90;;;;;;5033272;28;20209;-65
2023/10/13 13:12:28;;;;;;;14.07;6.95;;;22.10;99.90;;;;;;5033094;28;20183;-65
2023/10/13 13:14:55;;;;;;;19.17;6.97;;;22.10;99.90;;;;;;5033399;28;20182;-65
2023/10/13 13:17:21;;;;;;;14.52;7.50;;;22.10;99.90;;;;;;5032685;28;20175;-65
2023/10/13 13:19:47;;;;;;;14.05;6.75;;;22.20;99.90;;;;;;5033322;28;20210;-65
2023/10/13 13:22:13;;;;;;;18.63;7.15;;;22.30;99.90;;;;;;5032953;28;20206;-65
2023/10/13 13:24:44;;;;;;;17.92;6.90;;;22.40;99.90;;;;;;5015364;28;20198;-65
2023/10/13 13:27:22;;;;;;;16.65;6.95;;;22.30;99.90;;;;;;5033337;28;20152;-64
2023/10/13 13:29:48;;;;;;;15.88;7.13;;;22.30;99.90;;;;;;5033285;28;20156;-65
2023/10/13 13:32:23;;;;;;;17.50;7.25;;;22.40;99.90;;;;;;5015013;28;20210;-66
2023/10/13 13:35:04;;;;;;;21.67;7.95;;;22.40;99.90;;;;;;5032990;28;20635;-65
2023/10/13 13:37:31;;;;;;;13.63;6.18;;;22.40;99.90;;;;;;5033643;28;20230;-65
2023/10/13 13:40:13;;;;;;;18.83;6.75;;;22.40;99.90;;;;;;5032868;28;20179;-65
2023/10/13 13:42:43;;;;;;;10.80;6.28;;;22.40;99.90;;;;;;5015169;28;20199;-65
2023/10/13 13:45:21;;;;;;;17.92;6.93;;;22.50;99.90;;;;;;5033134;28;20195;-66
2023/10/13 13:47:53;;;;;;;16.73;7.15;;;22.50;99.90;;;;;;5015182;28;20175;-66
2023/10/13 13:50:24;;;;;;;12.95;6.65;;;22.50;99.90;;;;;;5033414;28;20175;-66
2023/10/13 13:52:52;;;;;;;22.73;6.63;;;22.50;99.90;;;;;;5018648;28;20195;-66
2023/10/13 13:55:19;;;;;;;17.85;6.45;;;22.50;99.90;;;;;;5036459;28;20250;-65
2023/10/13 13:57:45;;;;;;;16.27;7.00;;;22.50;99.90;;;;;;5036958;28;20159;-65
2023/10/13 14:00:16;;;;;;;18.63;6.78;;;22.40;99.90;;;;;;5018646;28;20271;-65
2023/10/13 14:02:47;;;;;;;18.67;6.60;;;22.40;99.90;;;;;;5036350;28;20214;-66
2023/10/13 14:05:16;;;;;;;18.63;6.97;;;22.40;99.90;;;;;;5018340;28;20206;-66
2023/10/13 14:07:48;;;;;;;16.40;6.63;;;22.40;99.90;;;;;;5036191;28;20168;-66
2023/10/13 14:10:31;;;;;;;13.95;6.60;;;22.40;99.90;;;;;;5036342;28;20713;-66
2023/10/13 14:13:06;;;;;;;20.00;6.95;;;22.40;99.90;;;;;;5036144;28;20191;-65
2023/10/13 14:15:40;;;;;;;16.70;6.32;;;22.40;99.90;;;;;;5036202;28;20151;-65
2023/10/13 14:18:07;;;;;;;15.63;6.20;;;22.40;99.90;;;;;;5036146;28;20155;-66
2023/10/13 14:20:39;;;;;;;14.18;6.90;;;22.40;99.90;;;;;;5036291;28;20156;-65
2023/10/13 14:23:09;;;;;;;16.52;6.35;;;22.40;99.90;;;;;;5035892;28;20226;-65
2023/10/13 14:25:37;;;;;;;15.18;6.47;;;22.30;99.90;;;;;;5017975;28;20618;-66
2023/10/13 14:28:06;;;;;;;16.42;6.70;;;22.40;99.90;;;;;;5036079;28;20630;-66
2023/10/13 14:30:33;;;;;;;15.43;7.18;;;22.40;99.90;;;;;;5036164;28;20171;-65
2023/10/13 14:33:00;;;;;;;15.98;6.32;;;22.50;99.90;;;;;;5035770;28;20226;-66
2023/10/13 14:35:27;;;;;;;14.50;5.93;;;22.50;99.90;;;;;;5018062;28;20175;-66
2023/10/13 14:37:54;;;;;;;17.83;6.45;;;22.50;99.90;;;;;;5017914;28;20181;-66
2023/10/13 14:40:21;;;;;;;16.15;6.60;;;22.50;99.90;;;;;;5035563;28;20209;-66
2023/10/13 14:42:48;;;;;;;16.13;6.75;;;22.50;99.90;;;;;;5017776;28;20206;-66
2023/10/13 14:45:16;;;;;;;17.85;6.22;;;22.50;99.90;;;;;;5035768;28;20289;-64
2023/10/13 14:47:42;;;;;;;13.93;5.70;;;22.50;99.90;;;;;;5035301;28;20172;-66
2023/10/13 14:50:21;;;;;;;21.88;7.28;;;22.50;99.90;;;;;;5035656;28;20175;-66
2023/10/13 14:52:48;;;;;;;18.50;6.13;;;22.50;99.90;;;;;;5035628;28;20555;-66
2023/10/13 14:55:21;;;;;;;14.30;6.63;;;22.50;99.90;;;;;;5035535;28;20175;-66
2023/10/13 14:57:51;;;;;;;14.02;5.80;;;22.40;99.90;;;;;;5035727;28;20163;-66
2023/10/13 15:00:27;;;;;;;18.15;6.88;;;22.40;99.90;;;;;;5035243;28;20206;-65
2023/10/13 15:02:54;;;;;;;18.95;6.60;;;22.30;99.90;;;;;;5034690;28;20210;-66
2023/10/13 15:05:21;;;;;;;17.73;6.93;;;22.20;99.90;;;;;;5035253;28;20199;-65
2023/10/13 15:07:46;;;;;;;15.80;6.15;;;22.20;99.90;;;;;;5017457;28;20199;-66
2023/10/13 15:10:14;;;;;;;15.32;5.65;;;22.30;99.90;;;;;;5035419;28;20190;-66
2023/10/13 15:12:44;;;;;;;19.13;7.00;;;22.30;99.90;;;;;;5035168;28;20191;-66
2023/10/13 15:15:15;;;;;;;16.50;5.88;;;22.20;99.90;;;;;;5035425;28;20183;-66
2023/10/13 15:17:43;;;;;;;17.85;5.93;;;22.10;99.90;;;;;;5017076;28;20209;-66
2023/10/13 15:20:11;;;;;;;14.60;6.07;;;22.10;99.90;;;;;;5035174;28;20191;-66
2023/10/13 15:22:37;;;;;;;14.15;6.57;;;22.10;99.90;;;;;;5017325;28;20203;-66
2023/10/13 15:25:10;;;;;;;16.23;6.43;;;22.10;99.90;;;;;;5034804;28;20178;-67
2023/10/13 15:27:41;;;;;;;16.30;6.70;;;22.10;99.90;;;;;;5034914;28;20243;-66
2023/10/13 15:30:19;;;;;;;17.65;6.63;;;22.00;99.90;;;;;;5017235;28;20187;-66
2023/10/13 15:32:48;;;;;;;12.88;5.93;;;21.90;99.90;;;;;;5016783;28;20198;-66
2023/10/13 15:35:15;;;;;;;17.50;6.18;;;22.00;99.90;;;;;;5035214;28;20207;-67
2023/10/13 15:37:41;;;;;;;18.13;6.30;;;22.00;99.90;;;;;;5035902;28;20318;-67
2023/10/13 15:40:15;;;;;;;16.08;6.55;;;21.90;99.90;;;;;;5034865;28;20175;-66
2023/10/13 15:42:46;;;;;;;14.60;6.03;;;22.00;99.90;;;;;;5034929;28;20679;-66
2023/10/13 15:45:19;;;;;;;18.83;6.90;;;22.00;99.90;;;;;;5016787;28;20215;-66
2023/10/13 15:47:48;;;;;;;15.55;5.60;;;22.00;99.90;;;;;;5034365;28;20593;-66
2023/10/13 15:50:18;;;;;;;19.90;6.80;;;22.00;99.90;;;;;;5034420;28;20175;-66
2023/10/13 15:52:47;;;;;;;20.02;6.63;;;22.00;99.90;;;;;;5034773;28;20225;-68
2023/10/13 15:55:17;;;;;;;18.23;6.45;;;22.00;99.90;;;;;;5034339;28;20266;-66
2023/10/13 15:57:45;;;;;;;19.15;6.40;;;22.00;99.90;;;;;;5016707;28;20546;-65
2023/10/13 16:00:25;;;;;;;13.57;6.10;;;21.90;99.90;;;;;;5016524;28;20179;-67
2023/10/13 16:02:54;;;;;;;15.95;5.90;;;21.90;99.90;;;;;;5033735;28;20206;-66
2023/10/13 16:05:23;;;;;;;21.02;6.60;;;21.90;99.90;;;;;;5016596;28;20614;-66
2023/10/13 16:07:52;;;;;;;23.17;7.35;;;21.90;99.90;;;;;;5034131;28;20183;-66
2023/10/13 16:10:21;;;;;;;19.90;6.45;;;21.90;99.90;;;;;;5034053;28;20257;-66
2023/10/13 16:12:47;;;;;;;17.85;5.90;;;21.90;99.90;;;;;;5033404;28;20190;-66
2023/10/13 16:15:14;;;;;;;15.05;5.55;;;21.80;99.90;;;;;;5034359;28;20210;-66
2023/10/13 16:17:41;;;;;;;22.70;7.10;;;21.80;99.90;;;;;;5033804;28;20179;-66
2023/10/13 16:20:17;;;;;;;14.20;6.10;;;21.80;99.90;;;;;;5033794;28;20694;-66
2023/10/13 16:22:47;;;;;;;20.88;6.68;;;21.80;99.90;;;;;;5016358;28;20636;-67
2023/10/13 16:25:15;;;;;;;13.13;6.15;;;21.70;99.90;;;;;;5033855;28;20199;-66
2023/10/13 16:27:42;;;;;;;14.35;6.55;;;21.70;99.90;;;;;;5034103;28;20182;-66
2023/10/13 16:30:19;;;;;;;16.13;7.10;;;21.70;99.90;;;;;;5033671;28;20258;-66
2023/10/13 16:32:45;;;;;;;12.65;6.13;;;21.70;99.90;;;;;;5033331;28;20186;-65
2023/10/13 16:35:17;;;;;;;10.18;5.80;;;21.60;99.90;;;;;;5034233;28;20159;-65
2023/10/13 16:37:50;;;;;;;12.20;5.75;;;21.60;99.90;;;;;;5016149;28;20178;-65
2023/10/13 16:40:20;;;;;;;16.77;5.97;;;21.60;99.90;;;;;;5033846;28;20648;-65
2023/10/13 16:42:52;;;;;;;12.20;6.07;;;21.50;99.90;;;;;;5033519;28;20235;-64
2023/10/13 16:45:21;;;;;;;12.93;5.80;;;21.50;99.90;;;;;;5033686;28;20364;-64
2023/10/13 16:47:53;;;;;;;12.95;5.97;;;21.60;99.90;;;;;;5033199;28;20631;-64